Terminal Aerodrome Forecast
Issued by NWS

Home | Current Version | Previous Version | Text Only | Print | Product List | Glossary Off
Versions: 1 2 3 4 5 6 7 8 9 10 11 12 13 14

000
FTUS43 KMPX 251739
TAFRWF
TAF
KRWF 251739Z 2518/2618 16012KT P6SM FEW040 FEW200
     FM260000 17010KT 6SM SHRA VCTS SCT040 OVC080CB
      TEMPO 2601/2605 2SM TSRA SCT020CB OVC040
     FM260800 28005KT P6SM OVC040
      TEMPO 2610/2614 5SM SHRA OVC025
     FM261500 36007KT P6SM OVC040=

USA.gov is the U.S. government's official web portal to all federal, state and local government web resources and services.